sensor_id;sensor_type;location;lat;lon;timestamp;P1;durP1;ratioP1;P2;durP2;ratioP2
13461;SDS011;6803;45.264;5.468;2023-08-06T00:00:55;1.50;;;1.17;;
13461;SDS011;6803;45.264;5.468;2023-08-06T00:03:26;2.17;;;1.03;;
13461;SDS011;6803;45.264;5.468;2023-08-06T00:05:57;3.30;;;1.10;;
13461;SDS011;6803;45.264;5.468;2023-08-06T00:08:28;2.30;;;1.17;;
13461;SDS011;6803;45.264;5.468;2023-08-06T00:10:59;1.93;;;1.27;;
13461;SDS011;6803;45.264;5.468;2023-08-06T00:13:30;3.20;;;1.17;;
13461;SDS011;6803;45.264;5.468;2023-08-06T00:16:08;2.60;;;1.00;;
13461;SDS011;6803;45.264;5.468;2023-08-06T00:18:40;3.15;;;0.93;;
13461;SDS011;6803;45.264;5.468;2023-08-06T00:21:11;1.70;;;1.17;;
13461;SDS011;6803;45.264;5.468;2023-08-06T00:23:42;1.53;;;1.20;;
13461;SDS011;6803;45.264;5.468;2023-08-06T00:26:13;1.70;;;1.00;;
13461;SDS011;6803;45.264;5.468;2023-08-06T00:28:44;2.47;;;1.03;;
13461;SDS011;6803;45.264;5.468;2023-08-06T00:31:15;2.23;;;1.40;;
13461;SDS011;6803;45.264;5.468;2023-08-06T00:33:46;1.43;;;0.93;;
13461;SDS011;6803;45.264;5.468;2023-08-06T00:36:16;1.52;;;1.20;;
13461;SDS011;6803;45.264;5.468;2023-08-06T00:38:47;1.40;;;1.00;;
13461;SDS011;6803;45.264;5.468;2023-08-06T00:41:18;1.10;;;1.00;;
13461;SDS011;6803;45.264;5.468;2023-08-06T00:43:48;0.77;;;0.77;;
13461;SDS011;6803;45.264;5.468;2023-08-06T00:46:20;2.27;;;1.13;;
13461;SDS011;6803;45.264;5.468;2023-08-06T00:48:51;2.23;;;1.27;;
13461;SDS011;6803;45.264;5.468;2023-08-06T00:51:22;1.60;;;1.00;;
13461;SDS011;6803;45.264;5.468;2023-08-06T00:53:53;1.43;;;1.00;;
13461;SDS011;6803;45.264;5.468;2023-08-06T00:56:25;3.13;;;1.20;;
13461;SDS011;6803;45.264;5.468;2023-08-06T00:58:56;1.40;;;1.30;;
13461;SDS011;6803;45.264;5.468;2023-08-06T01:01:27;1.40;;;1.20;;
13461;SDS011;6803;45.264;5.468;2023-08-06T01:03:58;2.13;;;1.20;;
13461;SDS011;6803;45.264;5.468;2023-08-06T01:06:31;1.40;;;1.00;;
13461;SDS011;6803;45.264;5.468;2023-08-06T01:09:14;2.30;;;1.17;;
13461;SDS011;6803;45.264;5.468;2023-08-06T01:11:52;2.30;;;1.20;;
13461;SDS011;6803;45.264;5.468;2023-08-06T01:14:28;1.33;;;1.10;;
13461;SDS011;6803;45.264;5.468;2023-08-06T01:16:58;1.33;;;1.07;;
13461;SDS011;6803;45.264;5.468;2023-08-06T01:19:30;1.40;;;1.30;;
13461;SDS011;6803;45.264;5.468;2023-08-06T01:22:01;1.23;;;1.13;;
13461;SDS011;6803;45.264;5.468;2023-08-06T01:24:32;6.77;;;1.37;;
13461;SDS011;6803;45.264;5.468;2023-08-06T01:29:57;1.03;;;1.00;;
13461;SDS011;6803;45.264;5.468;2023-08-06T01:32:33;3.97;;;1.03;;
13461;SDS011;6803;45.264;5.468;2023-08-06T01:35:06;1.67;;;1.30;;
13461;SDS011;6803;45.264;5.468;2023-08-06T01:37:39;1.20;;;0.90;;
13461;SDS011;6803;45.264;5.468;2023-08-06T01:40:12;1.83;;;1.20;;
13461;SDS011;6803;45.264;5.468;2023-08-06T01:42:43;0.90;;;0.80;;
13461;SDS011;6803;45.264;5.468;2023-08-06T01:45:14;2.93;;;1.17;;
13461;SDS011;6803;45.264;5.468;2023-08-06T01:47:45;1.47;;;1.00;;
13461;SDS011;6803;45.264;5.468;2023-08-06T01:50:15;1.20;;;1.00;;
13461;SDS011;6803;45.264;5.468;2023-08-06T01:52:46;3.03;;;1.10;;
13461;SDS011;6803;45.264;5.468;2023-08-06T01:55:17;0.80;;;0.80;;
13461;SDS011;6803;45.264;5.468;2023-08-06T01:57:48;1.17;;;0.80;;
13461;SDS011;6803;45.264;5.468;2023-08-06T02:00:19;3.23;;;0.90;;
13461;SDS011;6803;45.264;5.468;2023-08-06T02:02:49;3.33;;;0.97;;
13461;SDS011;6803;45.264;5.468;2023-08-06T02:05:20;1.67;;;0.90;;
13461;SDS011;6803;45.264;5.468;2023-08-06T02:07:51;1.43;;;0.80;;
13461;SDS011;6803;45.264;5.468;2023-08-06T02:10:22;1.00;;;0.87;;
13461;SDS011;6803;45.264;5.468;2023-08-06T02:12:53;0.70;;;0.63;;
13461;SDS011;6803;45.264;5.468;2023-08-06T02:15:23;2.37;;;0.80;;
13461;SDS011;6803;45.264;5.468;2023-08-06T02:17:54;1.77;;;0.87;;
13461;SDS011;6803;45.264;5.468;2023-08-06T02:20:25;0.90;;;0.70;;
13461;SDS011;6803;45.264;5.468;2023-08-06T02:22:55;1.20;;;0.73;;
13461;SDS011;6803;45.264;5.468;2023-08-06T02:25:26;1.23;;;0.73;;
13461;SDS011;6803;45.264;5.468;2023-08-06T02:27:57;0.70;;;0.70;;
13461;SDS011;6803;45.264;5.468;2023-08-06T02:30:28;1.40;;;0.80;;
13461;SDS011;6803;45.264;5.468;2023-08-06T02:32:59;2.93;;;1.13;;
13461;SDS011;6803;45.264;5.468;2023-08-06T02:35:29;2.10;;;0.63;;
13461;SDS011;6803;45.264;5.468;2023-08-06T02:38:00;1.17;;;0.90;;
13461;SDS011;6803;45.264;5.468;2023-08-06T02:40:31;1.37;;;1.10;;
13461;SDS011;6803;45.264;5.468;2023-08-06T02:43:01;2.23;;;0.80;;
13461;SDS011;6803;45.264;5.468;2023-08-06T02:45:32;1.67;;;0.77;;
13461;SDS011;6803;45.264;5.468;2023-08-06T02:48:03;0.62;;;0.62;;
13461;SDS011;6803;45.264;5.468;2023-08-06T02:50:38;0.60;;;0.60;;
13461;SDS011;6803;45.264;5.468;2023-08-06T02:53:09;1.00;;;0.37;;
13461;SDS011;6803;45.264;5.468;2023-08-06T02:55:44;1.93;;;0.70;;
13461;SDS011;6803;45.264;5.468;2023-08-06T02:58:22;2.30;;;1.00;;
13461;SDS011;6803;45.264;5.468;2023-08-06T03:00:59;1.40;;;0.97;;
13461;SDS011;6803;45.264;5.468;2023-08-06T03:03:31;1.20;;;0.83;;
13461;SDS011;6803;45.264;5.468;2023-08-06T03:06:02;1.97;;;1.07;;
13461;SDS011;6803;45.264;5.468;2023-08-06T03:08:33;1.00;;;0.70;;
13461;SDS011;6803;45.264;5.468;2023-08-06T03:11:04;1.17;;;1.00;;
13461;SDS011;6803;45.264;5.468;2023-08-06T03:13:35;0.97;;;0.87;;
13461;SDS011;6803;45.264;5.468;2023-08-06T03:16:06;2.57;;;1.43;;
13461;SDS011;6803;45.264;5.468;2023-08-06T03:18:37;0.77;;;0.70;;
13461;SDS011;6803;45.264;5.468;2023-08-06T03:21:08;2.53;;;1.20;;
13461;SDS011;6803;45.264;5.468;2023-08-06T03:23:38;3.60;;;0.83;;
13461;SDS011;6803;45.264;5.468;2023-08-06T03:26:10;2.00;;;0.90;;
13461;SDS011;6803;45.264;5.468;2023-08-06T03:28:41;3.73;;;1.20;;
13461;SDS011;6803;45.264;5.468;2023-08-06T03:31:11;2.90;;;1.20;;
13461;SDS011;6803;45.264;5.468;2023-08-06T03:33:42;2.70;;;1.30;;
13461;SDS011;6803;45.264;5.468;2023-08-06T03:36:13;3.23;;;0.90;;
13461;SDS011;6803;45.264;5.468;2023-08-06T03:38:44;5.50;;;1.53;;
13461;SDS011;6803;45.264;5.468;2023-08-06T03:41:14;5.80;;;1.40;;
13461;SDS011;6803;45.264;5.468;2023-08-06T03:43:45;7.77;;;1.90;;
13461;SDS011;6803;45.264;5.468;2023-08-06T03:46:16;3.77;;;1.30;;
13461;SDS011;6803;45.264;5.468;2023-08-06T03:48:47;8.47;;;1.80;;
13461;SDS011;6803;45.264;5.468;2023-08-06T03:51:17;7.40;;;2.17;;
13461;SDS011;6803;45.264;5.468;2023-08-06T03:53:48;6.00;;;1.87;;
13461;SDS011;6803;45.264;5.468;2023-08-06T03:56:19;9.77;;;1.90;;
13461;SDS011;6803;45.264;5.468;2023-08-06T03:58:50;6.87;;;1.67;;
13461;SDS011;6803;45.264;5.468;2023-08-06T04:01:20;6.50;;;1.83;;
13461;SDS011;6803;45.264;5.468;2023-08-06T04:03:51;6.53;;;1.97;;
13461;SDS011;6803;45.264;5.468;2023-08-06T04:06:22;6.13;;;1.77;;
13461;SDS011;6803;45.264;5.468;2023-08-06T04:08:52;10.80;;;2.03;;
13461;SDS011;6803;45.264;5.468;2023-08-06T04:11:23;7.97;;;1.80;;
13461;SDS011;6803;45.264;5.468;2023-08-06T04:13:54;5.43;;;1.43;;
13461;SDS011;6803;45.264;5.468;2023-08-06T04:16:24;9.27;;;1.80;;
13461;SDS011;6803;45.264;5.468;2023-08-06T04:18:55;5.80;;;1.60;;
13461;SDS011;6803;45.264;5.468;2023-08-06T04:21:26;8.20;;;1.70;;
13461;SDS011;6803;45.264;5.468;2023-08-06T04:23:57;9.50;;;1.83;;
13461;SDS011;6803;45.264;5.468;2023-08-06T04:26:28;4.03;;;1.33;;
13461;SDS011;6803;45.264;5.468;2023-08-06T04:28:59;7.97;;;2.00;;
13461;SDS011;6803;45.264;5.468;2023-08-06T04:31:30;5.67;;;1.70;;
13461;SDS011;6803;45.264;5.468;2023-08-06T04:34:01;6.87;;;2.00;;
13461;SDS011;6803;45.264;5.468;2023-08-06T04:36:31;6.27;;;1.47;;
13461;SDS011;6803;45.264;5.468;2023-08-06T04:39:03;7.60;;;1.83;;
13461;SDS011;6803;45.264;5.468;2023-08-06T04:41:33;9.60;;;2.17;;
13461;SDS011;6803;45.264;5.468;2023-08-06T04:44:04;11.03;;;1.90;;
13461;SDS011;6803;45.264;5.468;2023-08-06T04:46:35;6.23;;;1.60;;
13461;SDS011;6803;45.264;5.468;2023-08-06T04:49:05;9.50;;;2.03;;
13461;SDS011;6803;45.264;5.468;2023-08-06T04:51:36;9.60;;;2.20;;
13461;SDS011;6803;45.264;5.468;2023-08-06T04:54:07;9.80;;;1.40;;
13461;SDS011;6803;45.264;5.468;2023-08-06T04:56:37;8.13;;;1.50;;
13461;SDS011;6803;45.264;5.468;2023-08-06T04:59:08;8.63;;;1.47;;
13461;SDS011;6803;45.264;5.468;2023-08-06T05:01:39;7.97;;;1.50;;
13461;SDS011;6803;45.264;5.468;2023-08-06T05:04:10;5.17;;;1.70;;
13461;SDS011;6803;45.264;5.468;2023-08-06T05:06:41;8.77;;;1.80;;
13461;SDS011;6803;45.264;5.468;2023-08-06T05:09:11;8.80;;;1.97;;
13461;SDS011;6803;45.264;5.468;2023-08-06T05:11:42;6.27;;;1.63;;
13461;SDS011;6803;45.264;5.468;2023-08-06T05:14:13;8.57;;;1.40;;
13461;SDS011;6803;45.264;5.468;2023-08-06T05:16:44;8.50;;;1.77;;
13461;SDS011;6803;45.264;5.468;2023-08-06T05:19:15;6.97;;;1.53;;
13461;SDS011;6803;45.264;5.468;2023-08-06T05:21:45;8.80;;;1.80;;
13461;SDS011;6803;45.264;5.468;2023-08-06T05:24:16;7.63;;;1.70;;
13461;SDS011;6803;45.264;5.468;2023-08-06T05:26:48;7.10;;;2.00;;
13461;SDS011;6803;45.264;5.468;2023-08-06T05:29:19;6.87;;;1.30;;
13461;SDS011;6803;45.264;5.468;2023-08-06T05:31:50;4.87;;;1.40;;
13461;SDS011;6803;45.264;5.468;2023-08-06T05:34:21;7.23;;;1.90;;
13461;SDS011;6803;45.264;5.468;2023-08-06T05:36:53;6.27;;;1.77;;
13461;SDS011;6803;45.264;5.468;2023-08-06T05:39:24;6.40;;;1.83;;
13461;SDS011;6803;45.264;5.468;2023-08-06T05:41:54;7.50;;;1.70;;
13461;SDS011;6803;45.264;5.468;2023-08-06T05:44:25;7.37;;;1.83;;
13461;SDS011;6803;45.264;5.468;2023-08-06T05:46:56;8.33;;;1.80;;
13461;SDS011;6803;45.264;5.468;2023-08-06T05:49:27;5.47;;;1.37;;
13461;SDS011;6803;45.264;5.468;2023-08-06T05:51:58;6.67;;;2.07;;
13461;SDS011;6803;45.264;5.468;2023-08-06T05:54:28;8.80;;;1.70;;
13461;SDS011;6803;45.264;5.468;2023-08-06T05:56:59;6.47;;;1.87;;
13461;SDS011;6803;45.264;5.468;2023-08-06T05:59:30;10.77;;;1.97;;
13461;SDS011;6803;45.264;5.468;2023-08-06T06:02:00;7.53;;;1.60;;
13461;SDS011;6803;45.264;5.468;2023-08-06T06:04:31;8.50;;;2.23;;
13461;SDS011;6803;45.264;5.468;2023-08-06T06:07:03;8.23;;;2.00;;
13461;SDS011;6803;45.264;5.468;2023-08-06T06:09:34;9.03;;;2.20;;
13461;SDS011;6803;45.264;5.468;2023-08-06T06:12:06;8.67;;;1.73;;
13461;SDS011;6803;45.264;5.468;2023-08-06T06:14:38;6.17;;;1.73;;
13461;SDS011;6803;45.264;5.468;2023-08-06T06:17:10;4.70;;;1.27;;
13461;SDS011;6803;45.264;5.468;2023-08-06T06:19:41;8.80;;;1.87;;
13461;SDS011;6803;45.264;5.468;2023-08-06T06:22:12;6.23;;;1.80;;
13461;SDS011;6803;45.264;5.468;2023-08-06T06:24:44;10.03;;;2.27;;
13461;SDS011;6803;45.264;5.468;2023-08-06T06:27:14;10.80;;;1.80;;
13461;SDS011;6803;45.264;5.468;2023-08-06T06:29:45;7.57;;;1.77;;
13461;SDS011;6803;45.264;5.468;2023-08-06T06:32:17;8.00;;;1.77;;
13461;SDS011;6803;45.264;5.468;2023-08-06T06:34:48;8.10;;;1.47;;
13461;SDS011;6803;45.264;5.468;2023-08-06T06:37:19;5.70;;;1.20;;
13461;SDS011;6803;45.264;5.468;2023-08-06T06:39:51;6.27;;;1.30;;
13461;SDS011;6803;45.264;5.468;2023-08-06T06:42:22;4.27;;;1.20;;
13461;SDS011;6803;45.264;5.468;2023-08-06T06:44:54;4.47;;;1.30;;
13461;SDS011;6803;45.264;5.468;2023-08-06T06:47:25;5.40;;;1.20;;
13461;SDS011;6803;45.264;5.468;2023-08-06T06:49:56;5.57;;;1.10;;
13461;SDS011;6803;45.264;5.468;2023-08-06T06:52:29;5.33;;;0.80;;
13461;SDS011;6803;45.264;5.468;2023-08-06T06:55:00;2.80;;;0.93;;
13461;SDS011;6803;45.264;5.468;2023-08-06T06:57:31;3.03;;;1.17;;
13461;SDS011;6803;45.264;5.468;2023-08-06T07:00:03;1.40;;;0.80;;
13461;SDS011;6803;45.264;5.468;2023-08-06T07:02:36;4.47;;;0.90;;
13461;SDS011;6803;45.264;5.468;2023-08-06T07:05:07;2.13;;;0.70;;
13461;SDS011;6803;45.264;5.468;2023-08-06T07:07:39;3.87;;;0.97;;
13461;SDS011;6803;45.264;5.468;2023-08-06T07:10:10;1.87;;;0.70;;
13461;SDS011;6803;45.264;5.468;2023-08-06T07:12:42;1.67;;;0.60;;
13461;SDS011;6803;45.264;5.468;2023-08-06T07:15:13;2.63;;;0.70;;
13461;SDS011;6803;45.264;5.468;2023-08-06T07:17:46;3.50;;;0.70;;
13461;SDS011;6803;45.264;5.468;2023-08-06T07:20:17;1.53;;;0.80;;
13461;SDS011;6803;45.264;5.468;2023-08-06T07:22:48;2.30;;;0.70;;
13461;SDS011;6803;45.264;5.468;2023-08-06T07:25:20;4.17;;;1.00;;
13461;SDS011;6803;45.264;5.468;2023-08-06T07:27:50;2.47;;;0.87;;
13461;SDS011;6803;45.264;5.468;2023-08-06T07:30:21;3.02;;;0.90;;
13461;SDS011;6803;45.264;5.468;2023-08-06T07:32:53;4.00;;;0.97;;
13461;SDS011;6803;45.264;5.468;2023-08-06T07:35:24;3.83;;;1.00;;
13461;SDS011;6803;45.264;5.468;2023-08-06T07:37:57;0.73;;;0.60;;
13461;SDS011;6803;45.264;5.468;2023-08-06T07:40:28;2.47;;;0.83;;
13461;SDS011;6803;45.264;5.468;2023-08-06T07:43:00;2.17;;;0.87;;
13461;SDS011;6803;45.264;5.468;2023-08-06T07:45:33;2.93;;;0.93;;
13461;SDS011;6803;45.264;5.468;2023-08-06T07:48:05;3.47;;;1.13;;
13461;SDS011;6803;45.264;5.468;2023-08-06T07:50:36;1.90;;;0.77;;
13461;SDS011;6803;45.264;5.468;2023-08-06T07:53:07;2.57;;;1.03;;
13461;SDS011;6803;45.264;5.468;2023-08-06T07:55:38;2.50;;;0.83;;
13461;SDS011;6803;45.264;5.468;2023-08-06T07:58:11;3.50;;;0.80;;
13461;SDS011;6803;45.264;5.468;2023-08-06T08:00:42;3.87;;;1.00;;
13461;SDS011;6803;45.264;5.468;2023-08-06T08:03:13;3.47;;;0.90;;
13461;SDS011;6803;45.264;5.468;2023-08-06T08:05:45;3.30;;;0.82;;
13461;SDS011;6803;45.264;5.468;2023-08-06T08:08:16;4.37;;;1.17;;
13461;SDS011;6803;45.264;5.468;2023-08-06T08:10:46;3.37;;;0.90;;
13461;SDS011;6803;45.264;5.468;2023-08-06T08:13:18;2.17;;;0.73;;
13461;SDS011;6803;45.264;5.468;2023-08-06T08:15:49;1.37;;;0.60;;
13461;SDS011;6803;45.264;5.468;2023-08-06T08:18:21;3.00;;;0.90;;
13461;SDS011;6803;45.264;5.468;2023-08-06T08:20:52;2.50;;;0.60;;
13461;SDS011;6803;45.264;5.468;2023-08-06T08:23:23;4.03;;;0.50;;
13461;SDS011;6803;45.264;5.468;2023-08-06T08:25:53;5.70;;;0.87;;
13461;SDS011;6803;45.264;5.468;2023-08-06T08:28:24;2.53;;;0.53;;
13461;SDS011;6803;45.264;5.468;2023-08-06T08:30:55;0.63;;;0.33;;
13461;SDS011;6803;45.264;5.468;2023-08-06T08:33:26;1.00;;;0.50;;
13461;SDS011;6803;45.264;5.468;2023-08-06T08:35:56;1.53;;;0.63;;
13461;SDS011;6803;45.264;5.468;2023-08-06T08:38:27;1.70;;;0.50;;
13461;SDS011;6803;45.264;5.468;2023-08-06T08:40:58;2.60;;;0.80;;
13461;SDS011;6803;45.264;5.468;2023-08-06T08:43:29;3.83;;;1.03;;
13461;SDS011;6803;45.264;5.468;2023-08-06T08:46:00;1.03;;;0.70;;
13461;SDS011;6803;45.264;5.468;2023-08-06T08:48:33;1.30;;;0.60;;
13461;SDS011;6803;45.264;5.468;2023-08-06T08:51:04;1.73;;;0.90;;
13461;SDS011;6803;45.264;5.468;2023-08-06T08:53:37;7.33;;;1.73;;
13461;SDS011;6803;45.264;5.468;2023-08-06T08:56:10;3.47;;;0.77;;
13461;SDS011;6803;45.264;5.468;2023-08-06T08:58:42;3.60;;;0.83;;
13461;SDS011;6803;45.264;5.468;2023-08-06T09:01:13;3.10;;;0.97;;
13461;SDS011;6803;45.264;5.468;2023-08-06T09:03:45;4.40;;;0.70;;
13461;SDS011;6803;45.264;5.468;2023-08-06T09:06:16;1.23;;;0.60;;
13461;SDS011;6803;45.264;5.468;2023-08-06T09:08:50;1.33;;;0.53;;
13461;SDS011;6803;45.264;5.468;2023-08-06T09:11:24;1.03;;;0.60;;
13461;SDS011;6803;45.264;5.468;2023-08-06T09:13:56;1.83;;;0.47;;
13461;SDS011;6803;45.264;5.468;2023-08-06T09:16:29;3.27;;;0.70;;
13461;SDS011;6803;45.264;5.468;2023-08-06T09:19:01;0.40;;;0.40;;
13461;SDS011;6803;45.264;5.468;2023-08-06T09:21:40;1.13;;;0.43;;
13461;SDS011;6803;45.264;5.468;2023-08-06T09:24:11;2.80;;;0.65;;
13461;SDS011;6803;45.264;5.468;2023-08-06T09:26:44;0.90;;;0.60;;
13461;SDS011;6803;45.264;5.468;2023-08-06T09:29:15;1.57;;;0.53;;
13461;SDS011;6803;45.264;5.468;2023-08-06T09:31:47;3.30;;;0.73;;
13461;SDS011;6803;45.264;5.468;2023-08-06T09:34:20;1.97;;;0.60;;
13461;SDS011;6803;45.264;5.468;2023-08-06T09:36:52;0.70;;;0.30;;
13461;SDS011;6803;45.264;5.468;2023-08-06T09:39:26;1.33;;;0.50;;
13461;SDS011;6803;45.264;5.468;2023-08-06T09:44:35;1.80;;;0.53;;
13461;SDS011;6803;45.264;5.468;2023-08-06T09:47:08;1.57;;;0.37;;
13461;SDS011;6803;45.264;5.468;2023-08-06T09:49:42;2.53;;;0.50;;
13461;SDS011;6803;45.264;5.468;2023-08-06T09:52:14;1.13;;;0.47;;
13461;SDS011;6803;45.264;5.468;2023-08-06T09:54:46;1.47;;;0.50;;
13461;SDS011;6803;45.264;5.468;2023-08-06T09:57:19;2.87;;;0.77;;
13461;SDS011;6803;45.264;5.468;2023-08-06T09:59:52;1.30;;;0.50;;
13461;SDS011;6803;45.264;5.468;2023-08-06T10:02:23;1.30;;;0.60;;
13461;SDS011;6803;45.264;5.468;2023-08-06T10:04:56;2.13;;;0.80;;
13461;SDS011;6803;45.264;5.468;2023-08-06T10:07:29;2.20;;;0.90;;
13461;SDS011;6803;45.264;5.468;2023-08-06T10:10:00;1.47;;;0.70;;
13461;SDS011;6803;45.264;5.468;2023-08-06T10:12:32;4.33;;;1.23;;
13461;SDS011;6803;45.264;5.468;2023-08-06T10:15:08;1.67;;;0.67;;
13461;SDS011;6803;45.264;5.468;2023-08-06T10:17:41;2.20;;;0.80;;
13461;SDS011;6803;45.264;5.468;2023-08-06T10:20:15;1.43;;;0.63;;
13461;SDS011;6803;45.264;5.468;2023-08-06T10:22:46;1.13;;;0.60;;
13461;SDS011;6803;45.264;5.468;2023-08-06T10:28:24;1.53;;;0.60;;
13461;SDS011;6803;45.264;5.468;2023-08-06T10:31:04;1.20;;;0.47;;
13461;SDS011;6803;45.264;5.468;2023-08-06T10:33:42;2.03;;;0.90;;
13461;SDS011;6803;45.264;5.468;2023-08-06T10:36:14;1.87;;;0.60;;
13461;SDS011;6803;45.264;5.468;2023-08-06T10:38:46;0.67;;;0.47;;
13461;SDS011;6803;45.264;5.468;2023-08-06T10:41:21;1.53;;;0.50;;
13461;SDS011;6803;45.264;5.468;2023-08-06T10:43:53;0.70;;;0.40;;
13461;SDS011;6803;45.264;5.468;2023-08-06T10:46:36;1.90;;;0.33;;
13461;SDS011;6803;45.264;5.468;2023-08-06T10:49:07;1.63;;;0.63;;
13461;SDS011;6803;45.264;5.468;2023-08-06T10:51:40;2.30;;;0.40;;
13461;SDS011;6803;45.264;5.468;2023-08-06T10:54:12;0.70;;;0.40;;
13461;SDS011;6803;45.264;5.468;2023-08-06T10:56:43;0.77;;;0.53;;
13461;SDS011;6803;45.264;5.468;2023-08-06T10:59:16;0.80;;;0.53;;
13461;SDS011;6803;45.264;5.468;2023-08-06T11:01:47;1.00;;;0.40;;
13461;SDS011;6803;45.264;5.468;2023-08-06T11:04:19;1.83;;;0.63;;
13461;SDS011;6803;45.264;5.468;2023-08-06T11:06:52;0.97;;;0.40;;
13461;SDS011;6803;45.264;5.468;2023-08-06T11:09:23;1.03;;;0.40;;
13461;SDS011;6803;45.264;5.468;2023-08-06T11:11:54;1.30;;;0.50;;
13461;SDS011;6803;45.264;5.468;2023-08-06T11:14:25;3.13;;;0.73;;
13461;SDS011;6803;45.264;5.468;2023-08-06T11:16:56;1.47;;;0.60;;
13461;SDS011;6803;45.264;5.468;2023-08-06T11:19:27;1.60;;;0.70;;
13461;SDS011;6803;45.264;5.468;2023-08-06T11:21:59;1.20;;;0.70;;
13461;SDS011;6803;45.264;5.468;2023-08-06T11:24:32;0.87;;;0.67;;
13461;SDS011;6803;45.264;5.468;2023-08-06T11:27:06;1.40;;;0.60;;
13461;SDS011;6803;45.264;5.468;2023-08-06T11:29:43;1.20;;;0.67;;
13461;SDS011;6803;45.264;5.468;2023-08-06T11:32:14;1.73;;;0.77;;
13461;SDS011;6803;45.264;5.468;2023-08-06T11:34:45;1.37;;;0.67;;
13461;SDS011;6803;45.264;5.468;2023-08-06T11:37:16;1.97;;;0.60;;
13461;SDS011;6803;45.264;5.468;2023-08-06T11:39:48;2.07;;;0.73;;
13461;SDS011;6803;45.264;5.468;2023-08-06T11:42:20;2.50;;;0.80;;
13461;SDS011;6803;45.264;5.468;2023-08-06T11:44:53;1.20;;;0.53;;
13461;SDS011;6803;45.264;5.468;2023-08-06T11:47:26;1.07;;;0.37;;
13461;SDS011;6803;45.264;5.468;2023-08-06T11:49:57;1.37;;;0.53;;
13461;SDS011;6803;45.264;5.468;2023-08-06T11:52:29;1.00;;;0.60;;
13461;SDS011;6803;45.264;5.468;2023-08-06T11:55:01;1.33;;;0.70;;
13461;SDS011;6803;45.264;5.468;2023-08-06T11:57:34;3.13;;;0.40;;
13461;SDS011;6803;45.264;5.468;2023-08-06T12:00:09;1.07;;;0.43;;
13461;SDS011;6803;45.264;5.468;2023-08-06T12:02:41;0.70;;;0.40;;
13461;SDS011;6803;45.264;5.468;2023-08-06T12:05:13;0.93;;;0.47;;
13461;SDS011;6803;45.264;5.468;2023-08-06T12:07:46;1.17;;;0.40;;
13461;SDS011;6803;45.264;5.468;2023-08-06T12:10:18;1.33;;;0.50;;
13461;SDS011;6803;45.264;5.468;2023-08-06T12:12:51;0.80;;;0.40;;
13461;SDS011;6803;45.264;5.468;2023-08-06T12:15:23;0.43;;;0.37;;
13461;SDS011;6803;45.264;5.468;2023-08-06T12:17:57;1.53;;;0.50;;
13461;SDS011;6803;45.264;5.468;2023-08-06T12:20:28;0.60;;;0.40;;
13461;SDS011;6803;45.264;5.468;2023-08-06T12:22:58;0.90;;;0.50;;
13461;SDS011;6803;45.264;5.468;2023-08-06T12:25:30;2.00;;;0.50;;
13461;SDS011;6803;45.264;5.468;2023-08-06T12:28:01;2.03;;;0.87;;
13461;SDS011;6803;45.264;5.468;2023-08-06T12:30:34;0.40;;;0.30;;
13461;SDS011;6803;45.264;5.468;2023-08-06T12:33:05;0.83;;;0.33;;
13461;SDS011;6803;45.264;5.468;2023-08-06T12:35:36;1.50;;;0.70;;
13461;SDS011;6803;45.264;5.468;2023-08-06T12:38:07;0.87;;;0.60;;
13461;SDS011;6803;45.264;5.468;2023-08-06T12:40:38;2.10;;;0.87;;
13461;SDS011;6803;45.264;5.468;2023-08-06T12:43:10;2.90;;;1.10;;
13461;SDS011;6803;45.264;5.468;2023-08-06T12:45:42;2.33;;;0.83;;
13461;SDS011;6803;45.264;5.468;2023-08-06T12:48:15;1.10;;;0.67;;
13461;SDS011;6803;45.264;5.468;2023-08-06T12:50:47;2.07;;;0.70;;
13461;SDS011;6803;45.264;5.468;2023-08-06T12:53:18;3.10;;;0.90;;
13461;SDS011;6803;45.264;5.468;2023-08-06T12:55:51;3.70;;;1.20;;
13461;SDS011;6803;45.264;5.468;2023-08-06T12:58:22;2.57;;;0.93;;
13461;SDS011;6803;45.264;5.468;2023-08-06T13:00:53;2.20;;;0.93;;
13461;SDS011;6803;45.264;5.468;2023-08-06T13:03:24;1.10;;;0.70;;
13461;SDS011;6803;45.264;5.468;2023-08-06T13:05:57;2.10;;;1.00;;
13461;SDS011;6803;45.264;5.468;2023-08-06T13:08:28;2.53;;;1.00;;
13461;SDS011;6803;45.264;5.468;2023-08-06T13:10:58;1.30;;;0.80;;
13461;SDS011;6803;45.264;5.468;2023-08-06T13:13:29;2.90;;;0.70;;
13461;SDS011;6803;45.264;5.468;2023-08-06T13:16:00;1.53;;;0.90;;
13461;SDS011;6803;45.264;5.468;2023-08-06T13:18:31;2.83;;;1.20;;
13461;SDS011;6803;45.264;5.468;2023-08-06T13:21:01;3.40;;;0.90;;
13461;SDS011;6803;45.264;5.468;2023-08-06T13:23:32;1.80;;;0.83;;
13461;SDS011;6803;45.264;5.468;2023-08-06T13:26:03;1.87;;;0.77;;
13461;SDS011;6803;45.264;5.468;2023-08-06T13:28:34;2.53;;;0.93;;
13461;SDS011;6803;45.264;5.468;2023-08-06T13:31:05;3.70;;;0.90;;
13461;SDS011;6803;45.264;5.468;2023-08-06T13:33:36;2.30;;;0.87;;
13461;SDS011;6803;45.264;5.468;2023-08-06T13:36:06;1.07;;;0.77;;
13461;SDS011;6803;45.264;5.468;2023-08-06T13:38:37;2.17;;;0.70;;
13461;SDS011;6803;45.264;5.468;2023-08-06T13:41:08;1.07;;;0.60;;
13461;SDS011;6803;45.264;5.468;2023-08-06T13:43:39;1.83;;;0.60;;
13461;SDS011;6803;45.264;5.468;2023-08-06T13:46:10;1.43;;;0.90;;
13461;SDS011;6803;45.264;5.468;2023-08-06T13:48:43;1.53;;;0.70;;
13461;SDS011;6803;45.264;5.468;2023-08-06T13:51:14;2.00;;;0.80;;
13461;SDS011;6803;45.264;5.468;2023-08-06T13:53:45;2.40;;;0.80;;
13461;SDS011;6803;45.264;5.468;2023-08-06T13:56:16;1.93;;;0.70;;
13461;SDS011;6803;45.264;5.468;2023-08-06T13:58:47;1.30;;;0.70;;
13461;SDS011;6803;45.264;5.468;2023-08-06T14:01:18;2.07;;;0.90;;
13461;SDS011;6803;45.264;5.468;2023-08-06T14:03:51;1.47;;;0.80;;
13461;SDS011;6803;45.264;5.468;2023-08-06T14:06:22;4.47;;;1.13;;
13461;SDS011;6803;45.264;5.468;2023-08-06T14:08:53;2.15;;;0.85;;
13461;SDS011;6803;45.264;5.468;2023-08-06T14:11:23;1.55;;;0.88;;
13461;SDS011;6803;45.264;5.468;2023-08-06T14:13:54;1.67;;;0.80;;
13461;SDS011;6803;45.264;5.468;2023-08-06T14:16:25;1.83;;;0.73;;
13461;SDS011;6803;45.264;5.468;2023-08-06T14:18:56;1.97;;;0.83;;
13461;SDS011;6803;45.264;5.468;2023-08-06T14:21:27;1.43;;;0.70;;
13461;SDS011;6803;45.264;5.468;2023-08-06T14:23:58;1.70;;;0.90;;
13461;SDS011;6803;45.264;5.468;2023-08-06T14:26:28;1.90;;;0.70;;
13461;SDS011;6803;45.264;5.468;2023-08-06T14:29:00;1.53;;;0.90;;
13461;SDS011;6803;45.264;5.468;2023-08-06T14:31:31;2.33;;;0.80;;
13461;SDS011;6803;45.264;5.468;2023-08-06T14:34:01;2.53;;;0.93;;
13461;SDS011;6803;45.264;5.468;2023-08-06T14:36:32;3.13;;;1.30;;
13461;SDS011;6803;45.264;5.468;2023-08-06T14:39:03;1.90;;;0.67;;
13461;SDS011;6803;45.264;5.468;2023-08-06T14:41:34;1.83;;;0.70;;
13461;SDS011;6803;45.264;5.468;2023-08-06T14:44:05;1.33;;;0.70;;
13461;SDS011;6803;45.264;5.468;2023-08-06T14:46:36;8.17;;;1.20;;
13461;SDS011;6803;45.264;5.468;2023-08-06T14:49:07;1.83;;;1.00;;
13461;SDS011;6803;45.264;5.468;2023-08-06T14:51:37;1.77;;;0.73;;
13461;SDS011;6803;45.264;5.468;2023-08-06T14:54:08;1.83;;;0.83;;
13461;SDS011;6803;45.264;5.468;2023-08-06T14:56:39;2.70;;;1.10;;
13461;SDS011;6803;45.264;5.468;2023-08-06T14:59:10;2.53;;;0.83;;
13461;SDS011;6803;45.264;5.468;2023-08-06T15:01:40;2.33;;;0.90;;
13461;SDS011;6803;45.264;5.468;2023-08-06T15:04:11;4.23;;;1.13;;
13461;SDS011;6803;45.264;5.468;2023-08-06T15:06:42;2.23;;;0.80;;
13461;SDS011;6803;45.264;5.468;2023-08-06T15:09:13;2.70;;;0.73;;
13461;SDS011;6803;45.264;5.468;2023-08-06T15:11:44;1.63;;;0.70;;
13461;SDS011;6803;45.264;5.468;2023-08-06T15:14:14;2.00;;;0.93;;
13461;SDS011;6803;45.264;5.468;2023-08-06T15:16:46;1.55;;;1.02;;
13461;SDS011;6803;45.264;5.468;2023-08-06T15:19:20;4.80;;;0.90;;
13461;SDS011;6803;45.264;5.468;2023-08-06T15:21:50;2.07;;;1.00;;
13461;SDS011;6803;45.264;5.468;2023-08-06T15:24:21;3.57;;;1.07;;
13461;SDS011;6803;45.264;5.468;2023-08-06T15:26:52;1.57;;;0.90;;
13461;SDS011;6803;45.264;5.468;2023-08-06T15:29:23;1.87;;;0.90;;
13461;SDS011;6803;45.264;5.468;2023-08-06T15:31:54;1.90;;;0.90;;
13461;SDS011;6803;45.264;5.468;2023-08-06T15:34:27;3.03;;;0.70;;